Detall de PIREP

Printer-friendly versionPDF version

[2011/02/22 10:00:00]
Flight IATA:CT3118
Pilot Number:011
Company ICAO:CAT
Aircraft Type:F50/A
PAX:50
Aircraft Registration:DREAMWINGS
Departing Airport: LEPA
Destination Airport: LFMP
Alternate Airport:LFBO
Online: VATSIM
Route:MEROS B16 CHELY G23 VERSO A67 BGR A27 KANIG
Flight Level:F160
No Slew and time accel
No pause
Crash detect
Detect pilot in Cockpit between each 30 and 45 minutes
10:00 Zero fuel Weight: 42242 Lbs, Fuel Weight: 2724 Lbs
10:00 VATSIM:LEPA 220930Z 30014G24KT 270V330 9999 FEW025 17/08 Q1012 NOSIG
10:00 VATSIM:LFMP 220900Z 31035G52KT 9999 SCT033 BKN230 14/06 Q1008 NOSIG
10:04 Parking Brakes off
10:18 Take-off
10:18 Take off Weight: 44855 Lbs
10:18 Wind: 312º @ 027 Knots Heading: 247º
10:18 POS N39º 33´ 26´´ E002º 43´ 56´´
10:18 Gear Up: 136 Knots
10:18 Flaps:3 at 136 Knots
10:19 Flaps:2 at 167 Knots
10:19 Flaps:1 at 170 Knots
10:19 Flaps:0 at 177 Knots
10:30 TOC
10:30 Fuel Weight: 2252 Lb
10:33 Wind:322º@047 Knots Heading: 056º Ground Speed: 274 Knots Altitude 15941 ft
10:48 Wind:304º@033 Knots Heading: 001º Ground Speed: 249 Knots Altitude 15938 ft
11:03 Wind:315º@027 Knots Heading: 278º Ground Speed: 236 Knots Altitude 15918 ft
11:18 Wind:305º@024 Knots Heading: 331º Ground Speed: 235 Knots Altitude 15905 ft
11:22 TOD
11:22 Fuel Weight: 889 Lb
11:33 Wind:326º@029 Knots Heading: 357º Ground Speed: 177 Knots Altitude 4839 ft
11:34 Flaps:1 at 146 Knots
11:35 Flaps:2 at 152 Knots
11:36 Flaps:3 at 136 Knots
11:36 Flaps:4 at 126 Knots
11:36 Gear Down: 123 Knots
11:37 Flaps:5 at 102 Knots
11:38 Flaps:6 at 124 Knots
11:42 TouchDown:Rate -303 ft/min Speed: 88 Knots
11:42 Flaps:0 at 83 Knots
11:42 VATSIM:LFMP 221100Z 33017G29KT 300V360 9999 SCT033 BKN230 13/07 Q1011 NOSIG
11:43 Land
11:43 Wind:346º@017 Knots
11:43 Heading: 325º
11:43 Flight Duration: 01:25
11:43 Landing Weight: 42882 Lbs
11:43 POS N42º 45´ 05´´ E002º 51´ 50´´
11:47 Parking brakes on
11:47 Block to Block Duration: 01:43
11:47 Final Fuel: 608 Lbls
11:47 Spent Fuel: 2116 Lbls
11:47 Flight Length: 260 NM
11:47 TOD Land Length: 57 NM

Exportar CSV

Powered by Drupal - Modified by Danger4k